Ciudad Real, Spain
Current Conditions -  °F | °C
As of 8:03 AM on Friday 31 Oct 2014 (Local Time) from LEAO Reporting Station
Moderate Fog Moderate Fog  
Wind Chill: 46°   Ceiling: 100
Heat Index: 46°   Visibility: 0.25mi
Dew Point: 45°   Wind: 1mph
Humidity: 93%   Direction: NA
Pressure: 30.21"   Gusts: NA
Location:  38.99°N, 3.93°W
Report Text: LEAO 310703Z VRB01KT 0400 R27/1400N FG BKN001 08/07 Q1023
Loading
Personal Weather Stations






























Interactive Weather Map
Tropical Storm Tracking
New forecast layout! Learn more

10-Day Weather Forecast

Advertisements
Track Severe Weather on mobile